createdAt,value
2019-06-10T00:01:53.430Z,5.65
2019-06-10T00:04:22.841Z,6.47
2019-06-10T00:06:52.217Z,6.20
2019-06-10T00:09:21.607Z,5.95
2019-06-10T00:11:51.460Z,6.55
2019-06-10T00:14:21.323Z,7.25
2019-06-10T00:16:51.072Z,5.22
2019-06-10T00:19:21.637Z,6.35
2019-06-10T00:21:51.320Z,6.12
2019-06-10T00:24:21.249Z,6.67
2019-06-10T00:26:51.227Z,7.40
2019-06-10T00:29:22.269Z,6.33
2019-06-10T00:31:51.930Z,6.40
2019-06-10T00:34:21.434Z,6.35
2019-06-10T00:36:51.088Z,6.55
2019-06-10T00:39:22.144Z,6.60
2019-06-10T00:41:52.243Z,6.78
2019-06-10T00:44:21.703Z,6.90
2019-06-10T00:46:51.753Z,6.90
2019-06-10T00:49:21.433Z,7.17
2019-06-10T00:51:51.126Z,6.87
2019-06-10T00:54:21.823Z,7.92
2019-06-10T00:56:51.842Z,7.35
2019-06-10T00:59:21.979Z,7.22
2019-06-10T01:01:51.664Z,7.40
2019-06-10T01:04:21.696Z,6.80
2019-06-10T01:06:51.631Z,7.58
2019-06-10T01:09:21.948Z,6.70
2019-06-10T01:11:51.980Z,6.70
2019-06-10T01:14:21.791Z,7.00
2019-06-10T01:16:51.409Z,7.05
2019-06-10T01:19:21.923Z,6.97
2019-06-10T01:21:51.514Z,7.92
2019-06-10T01:24:22.349Z,7.03
2019-06-10T01:26:51.868Z,7.15
2019-06-10T01:29:21.279Z,7.50
2019-06-10T01:31:51.275Z,6.80
2019-06-10T01:34:21.792Z,6.67
2019-06-10T01:36:51.364Z,5.92
2019-06-10T01:39:22.685Z,6.17
2019-06-10T01:41:51.815Z,6.62
2019-06-10T01:44:22.010Z,7.05
2019-06-10T01:46:51.872Z,6.55
2019-06-10T01:49:21.531Z,6.25
2019-06-10T01:51:51.577Z,6.12
2019-06-10T01:54:21.424Z,5.90
2019-06-10T01:56:51.245Z,6.08
2019-06-10T01:59:22.073Z,6.42
2019-06-10T02:02:12.761Z,6.00
2019-06-10T02:04:41.623Z,6.12
2019-06-10T02:07:12.094Z,6.35
2019-06-10T02:09:42.106Z,6.50
2019-06-10T02:12:12.754Z,7.25
2019-06-10T02:14:42.811Z,5.80
2019-06-10T02:17:13.165Z,7.08
2019-06-10T02:19:43.209Z,7.15
2019-06-10T02:22:14.978Z,7.28
2019-06-10T02:24:43.632Z,7.75
2019-06-10T02:27:14.473Z,7.78
2019-06-10T02:29:44.206Z,8.60
2019-06-10T02:32:18.666Z,8.85
2019-06-10T02:35:01.333Z,8.10
2019-06-10T02:37:20.157Z,7.97
2019-06-10T02:39:46.727Z,9.80
2019-06-10T02:42:29.865Z,8.58
2019-06-10T02:44:54.095Z,8.55
2019-06-10T02:47:31.019Z,8.95
2019-06-10T02:50:02.540Z,8.95
2019-06-10T02:52:32.658Z,9.95
2019-06-10T02:54:56.717Z,9.33
2019-06-10T02:57:34.959Z,8.20
2019-06-10T02:59:57.198Z,8.03
2019-06-10T03:02:31.527Z,8.00
2019-06-10T03:04:57.597Z,7.35
2019-06-10T03:07:31.016Z,6.78
2019-06-10T03:09:58.035Z,8.80
2019-06-10T03:12:28.214Z,8.53
2019-06-10T03:14:57.638Z,8.95
2019-06-10T03:17:28.241Z,8.60
2019-06-10T03:19:57.806Z,9.23
2019-06-10T03:22:28.361Z,8.83
2019-06-10T03:24:57.854Z,7.60
2019-06-10T03:27:27.955Z,7.53
2019-06-10T03:29:57.342Z,7.72
2019-06-10T03:32:33.352Z,7.30
2019-06-10T03:34:57.692Z,7.72
2019-06-10T03:37:27.714Z,7.78
2019-06-10T03:39:57.111Z,8.70
2019-06-10T03:42:28.064Z,8.73
2019-06-10T03:44:57.605Z,9.08
2019-06-10T03:47:28.652Z,10.20
2019-06-10T03:49:58.131Z,8.35
2019-06-10T03:52:28.553Z,9.30
2019-06-10T03:54:58.046Z,8.70
2019-06-10T03:57:28.682Z,9.50
2019-06-10T03:59:58.182Z,8.38
2019-06-10T04:02:28.491Z,8.70
2019-06-10T04:04:57.969Z,8.88
2019-06-10T04:07:30.662Z,8.50
2019-06-10T04:09:58.415Z,8.30
2019-06-10T04:12:29.048Z,8.35
2019-06-10T04:14:58.656Z,7.05
2019-06-10T04:17:28.801Z,7.15
2019-06-10T04:20:09.435Z,7.58
2019-06-10T04:22:29.303Z,7.37
2019-06-10T04:24:58.718Z,7.53
2019-06-10T04:27:28.466Z,7.10
2019-06-10T04:29:57.958Z,5.83
2019-06-10T04:32:27.774Z,6.58
2019-06-10T04:34:58.390Z,7.12
2019-06-10T04:37:29.361Z,6.87
2019-06-10T04:39:58.864Z,6.25
2019-06-10T04:42:28.936Z,6.25
2019-06-10T04:44:58.317Z,5.33
2019-06-10T04:47:28.323Z,6.67
2019-06-10T04:49:58.904Z,6.53
2019-06-10T04:52:29.675Z,5.83
2019-06-10T04:54:59.394Z,5.12
2019-06-10T04:57:29.673Z,5.15
2019-06-10T04:59:59.060Z,5.78
2019-06-10T05:02:29.831Z,5.03
2019-06-10T05:04:59.467Z,5.85
2019-06-10T05:07:32.568Z,5.33
2019-06-10T05:09:59.891Z,5.00
2019-06-10T05:12:29.617Z,5.35
2019-06-10T05:14:59.138Z,4.75
2019-06-10T05:17:29.664Z,5.15
2019-06-10T05:20:02.296Z,5.03
2019-06-10T05:22:32.737Z,5.25
2019-06-10T05:25:02.454Z,4.85
2019-06-10T05:27:33.109Z,5.17
2019-06-10T05:30:02.612Z,5.62
2019-06-10T05:32:33.476Z,5.42
2019-06-10T05:35:03.458Z,5.28
2019-06-10T05:37:33.860Z,5.58
2019-06-10T05:40:03.947Z,6.72
2019-06-10T05:42:35.576Z,6.70
2019-06-10T05:45:05.341Z,5.70
2019-06-10T05:47:36.083Z,5.97
2019-06-10T05:50:06.023Z,6.75
2019-06-10T05:52:35.432Z,5.97
2019-06-10T05:55:05.322Z,6.00
2019-06-10T05:57:35.574Z,6.30
2019-06-10T06:00:11.381Z,6.12
2019-06-10T06:02:37.610Z,6.28
2019-06-10T06:05:08.143Z,7.00
2019-06-10T06:07:37.609Z,5.12
2019-06-10T06:10:07.859Z,5.40
2019-06-10T06:12:37.861Z,7.53
2019-06-10T06:15:07.864Z,8.55
2019-06-10T06:17:38.517Z,6.45
2019-06-10T06:20:10.150Z,6.40
2019-06-10T06:22:39.646Z,6.67
2019-06-10T06:25:09.928Z,7.72
2019-06-10T06:27:39.331Z,6.78
2019-06-10T06:30:13.725Z,8.05
2019-06-10T06:32:39.959Z,6.62
2019-06-10T06:35:09.451Z,7.10
2019-06-10T06:37:39.714Z,7.20
2019-06-10T06:40:09.894Z,6.17
2019-06-10T06:42:39.380Z,6.25
2019-06-10T06:45:09.044Z,6.40
2019-06-10T06:47:39.139Z,6.80
2019-06-10T06:50:08.842Z,6.83
2019-06-10T06:53:09.257Z,5.85
2019-06-10T06:55:09.651Z,6.65
2019-06-10T06:57:40.063Z,7.25
2019-06-10T07:00:35.175Z,5.37
2019-06-10T07:02:43.485Z,6.25
2019-06-10T07:05:13.335Z,6.65
2019-06-10T07:07:43.380Z,6.45
2019-06-10T07:10:13.847Z,6.53
2019-06-10T07:12:44.662Z,6.80
2019-06-10T07:15:14.214Z,6.40
2019-06-10T07:17:45.529Z,6.50
2019-06-10T07:20:14.811Z,6.10
2019-06-10T07:22:46.704Z,5.95
2019-06-10T07:25:15.199Z,5.28
2019-06-10T07:27:46.891Z,5.95
2019-06-10T07:30:15.850Z,5.72
2019-06-10T07:32:47.275Z,6.95
2019-06-10T07:35:16.279Z,6.60
2019-06-10T07:37:46.160Z,7.05
2019-06-10T07:40:15.607Z,6.35
2019-06-10T07:42:45.452Z,6.97
2019-06-10T07:45:15.036Z,6.67
2019-06-10T07:47:45.656Z,6.70
2019-06-10T07:50:15.721Z,6.03
2019-06-10T07:52:46.865Z,6.67
2019-06-10T07:55:16.732Z,6.58
2019-06-10T07:57:46.105Z,6.60
2019-06-10T08:00:16.168Z,7.80
2019-06-10T08:02:46.162Z,7.45
2019-06-10T08:05:15.855Z,7.75
2019-06-10T08:07:47.160Z,6.60
2019-06-10T08:10:16.491Z,6.30
2019-06-10T08:12:46.949Z,7.58
2019-06-10T08:15:16.913Z,7.20
2019-06-10T08:17:46.403Z,7.10
2019-06-10T08:20:36.962Z,6.87
2019-06-10T08:23:06.456Z,5.92
2019-06-10T08:25:36.802Z,6.30
2019-06-10T08:28:06.257Z,6.08
2019-06-10T08:30:35.670Z,6.62
2019-06-10T08:33:05.196Z,6.55
2019-06-10T08:35:44.009Z,5.83
2019-06-10T08:38:06.010Z,5.53
2019-06-10T08:40:36.294Z,5.78
2019-06-10T08:43:05.993Z,5.55
2019-06-10T08:45:36.787Z,5.50
2019-06-10T08:48:06.519Z,6.92
2019-06-10T08:50:37.508Z,5.45
2019-06-10T08:53:14.365Z,5.35
2019-06-10T08:55:39.575Z,5.12
2019-06-10T08:58:08.999Z,5.65
2019-06-10T09:00:39.163Z,5.22
2019-06-10T09:03:12.560Z,5.85
2019-06-10T09:05:46.037Z,5.83
2019-06-10T09:08:13.040Z,5.95
2019-06-10T09:10:46.242Z,5.22
2019-06-10T09:13:13.629Z,5.10
2019-06-10T09:15:45.103Z,5.83
2019-06-10T09:18:17.037Z,6.03
2019-06-10T09:20:50.990Z,5.37
2019-06-10T09:23:22.157Z,4.95
2019-06-10T09:25:49.552Z,5.42
2019-06-10T09:28:18.327Z,5.53
2019-06-10T09:30:54.098Z,5.45
2019-06-10T09:33:18.729Z,5.37
2019-06-10T09:35:50.927Z,5.67
2019-06-10T09:38:19.329Z,5.30
2019-06-10T09:41:00.509Z,5.67
2019-06-10T09:43:23.282Z,4.70
2019-06-10T09:45:56.275Z,5.75
2019-06-10T09:48:24.748Z,4.37
2019-06-10T09:50:58.795Z,5.50
2019-06-10T09:53:32.799Z,5.78
2019-06-10T09:55:56.407Z,5.47
2019-06-10T09:58:25.908Z,6.17
2019-06-10T10:00:57.904Z,5.55
2019-06-10T10:06:10.016Z,6.17
2019-06-10T10:08:29.122Z,5.40
2019-06-10T10:10:59.226Z,5.28
2019-06-10T10:13:28.866Z,5.20
2019-06-10T10:15:58.284Z,5.70
2019-06-10T10:18:27.713Z,5.37
2019-06-10T10:21:00.380Z,5.50
2019-06-10T10:23:28.180Z,5.65
2019-06-10T10:25:57.587Z,4.83
2019-06-10T10:28:26.951Z,4.85
2019-06-10T10:30:58.020Z,5.28
2019-06-10T10:33:30.034Z,5.42
2019-06-10T10:35:59.163Z,5.47
2019-06-10T10:38:28.547Z,5.28
2019-06-10T10:40:59.086Z,5.60
2019-06-10T10:43:33.973Z,5.37
2019-06-10T10:46:05.273Z,6.22
2019-06-10T10:48:33.591Z,5.22
2019-06-10T10:51:03.415Z,5.47
2019-06-10T10:53:33.312Z,5.35
2019-06-10T10:56:02.799Z,5.97
2019-06-10T10:58:33.146Z,5.05
2019-06-10T11:01:04.322Z,5.97
2019-06-10T11:03:33.866Z,5.28
2019-06-10T11:06:03.342Z,4.97
2019-06-10T11:08:33.665Z,5.08
2019-06-10T11:11:05.186Z,5.87
2019-06-10T11:13:36.517Z,5.08
2019-06-10T11:16:06.125Z,5.42
2019-06-10T11:18:35.978Z,5.92
2019-06-10T11:21:05.477Z,4.90
2019-06-10T11:23:34.890Z,5.30
2019-06-10T11:26:04.376Z,5.87
2019-06-10T11:28:33.770Z,5.80
2019-06-10T11:31:03.853Z,5.85
2019-06-10T11:33:33.799Z,7.00
2019-06-10T11:36:03.353Z,5.80
2019-06-10T11:38:33.114Z,6.42
2019-06-10T11:41:02.670Z,6.30
2019-06-10T11:43:33.185Z,6.47
2019-06-10T11:46:07.221Z,7.58
2019-06-10T11:48:33.865Z,7.42
2019-06-10T11:51:04.660Z,6.00
2019-06-10T11:53:34.670Z,6.85
2019-06-10T11:56:04.295Z,6.50
2019-06-10T11:58:33.738Z,7.30
2019-06-10T12:01:03.754Z,6.87
2019-06-10T12:03:33.592Z,7.37
2019-06-10T12:06:05.290Z,6.53
2019-06-10T12:08:34.081Z,6.60
2019-06-10T12:11:03.494Z,6.60
2019-06-10T12:13:34.313Z,6.40
2019-06-10T12:17:05.195Z,6.28
2019-06-10T12:18:35.188Z,6.67
2019-06-10T12:21:04.667Z,6.62
2019-06-10T12:23:34.089Z,5.75
2019-06-10T12:26:04.975Z,6.28
2019-06-10T12:28:34.754Z,5.87
2019-06-10T12:31:07.317Z,5.25
2019-06-10T12:33:35.231Z,4.97
2019-06-10T12:36:07.131Z,5.95
2019-06-10T12:38:35.817Z,5.87
2019-06-10T12:41:08.972Z,7.30
2019-06-10T12:43:36.255Z,5.83
2019-06-10T12:46:05.899Z,6.25
2019-06-10T12:48:35.286Z,6.08
2019-06-10T12:51:08.226Z,6.87
2019-06-10T12:53:35.801Z,6.85
2019-06-10T12:56:09.812Z,7.22
2019-06-10T12:58:36.305Z,6.53
2019-06-10T13:01:06.357Z,5.78
2019-06-10T13:03:36.731Z,6.42
2019-06-10T13:06:09.098Z,7.05
2019-06-10T13:08:37.253Z,7.25
2019-06-10T13:11:08.185Z,7.12
2019-06-10T13:13:37.772Z,7.00
2019-06-10T13:16:09.155Z,6.03
2019-06-10T13:18:38.187Z,7.33
2019-06-10T13:21:13.353Z,5.83
2019-06-10T13:23:38.719Z,6.83
2019-06-10T13:26:12.598Z,7.62
2019-06-10T13:28:39.168Z,7.42
2019-06-10T13:31:10.252Z,5.70
2019-06-10T13:33:42.638Z,6.00
2019-06-10T13:36:10.830Z,6.20
2019-06-10T13:38:42.529Z,5.35
2019-06-10T13:41:11.332Z,5.67
2019-06-10T13:43:43.187Z,4.83
2019-06-10T13:46:11.779Z,5.17
2019-06-10T13:48:43.066Z,5.58
2019-06-10T13:51:15.342Z,6.85
2019-06-10T13:53:46.258Z,5.65
2019-06-10T13:56:38.307Z,5.28
2019-06-10T13:58:46.411Z,5.37
2019-06-10T14:01:21.441Z,5.72
2019-06-10T14:03:47.008Z,4.25
2019-06-10T14:06:33.199Z,4.80
2019-06-10T14:08:47.515Z,5.03
2019-06-10T14:11:16.900Z,4.97
2019-06-10T14:13:46.374Z,4.00
2019-06-10T14:16:15.743Z,4.22
2019-06-10T14:18:45.069Z,4.47
2019-06-10T14:21:18.399Z,3.47
2019-06-10T14:23:45.538Z,4.30
2019-06-10T14:26:17.089Z,4.87
2019-06-10T14:28:46.010Z,4.35
2019-06-10T14:31:37.385Z,4.58
2019-06-10T14:33:46.415Z,3.45
2019-06-10T14:36:16.841Z,3.80
2019-06-10T14:38:46.332Z,3.67
2019-06-10T14:41:15.702Z,3.80
2019-06-10T14:43:45.036Z,4.35
2019-06-10T14:46:17.176Z,3.90
2019-06-10T14:48:45.484Z,4.85
2019-06-10T14:51:16.870Z,4.10
2019-06-10T14:53:45.897Z,4.35
2019-06-10T14:56:19.375Z,4.35
2019-06-10T14:58:46.330Z,4.90
2019-06-10T15:01:23.728Z,5.42
2019-06-10T15:03:46.782Z,4.87
2019-06-10T15:06:16.191Z,4.55
2019-06-10T15:08:45.695Z,4.50
2019-06-10T15:11:15.862Z,4.50
2019-06-10T15:13:45.381Z,5.47
2019-06-10T15:16:14.799Z,5.12
2019-06-10T15:18:44.173Z,5.72
2019-06-10T15:21:13.599Z,4.83
2019-06-10T15:23:43.341Z,6.35
2019-06-10T15:26:14.814Z,6.15
2019-06-10T15:28:43.884Z,5.80
2019-06-10T15:31:15.109Z,5.28
2019-06-10T15:33:44.379Z,8.08
2019-06-10T15:36:15.195Z,5.92
2019-06-10T15:38:44.706Z,4.35
2019-06-10T15:41:17.839Z,5.53
2019-06-10T15:43:45.222Z,3.55
2019-06-10T15:46:15.884Z,3.75
2019-06-10T15:48:45.595Z,3.00
2019-06-10T15:51:17.474Z,2.80
2019-06-10T15:53:46.131Z,3.80
2019-06-10T15:56:27.246Z,3.55
2019-06-10T15:58:46.575Z,2.98
2019-06-10T16:01:18.806Z,3.42
2019-06-10T16:03:47.086Z,3.22
2019-06-10T16:06:16.499Z,4.03
2019-06-10T16:08:46.007Z,3.90
2019-06-10T16:11:18.314Z,3.83
2019-06-10T16:13:46.529Z,4.45
2019-06-10T16:16:16.839Z,4.45
2019-06-10T16:18:46.224Z,4.97
2019-06-10T16:21:16.990Z,4.45
2019-06-10T16:23:46.928Z,5.35
2019-06-10T16:26:16.379Z,5.30
2019-06-10T16:28:45.847Z,4.25
2019-06-10T16:31:16.601Z,5.10
2019-06-10T16:33:49.085Z,4.53
2019-06-10T16:36:17.253Z,5.05
2019-06-10T16:38:46.715Z,4.87
2019-06-10T16:41:17.429Z,4.50
2019-06-10T16:43:47.116Z,4.10
2019-06-10T16:46:16.543Z,4.47
2019-06-10T16:48:45.987Z,4.08
2019-06-10T16:51:15.466Z,3.77
2019-06-10T16:53:44.852Z,4.58
2019-06-10T16:56:14.787Z,4.03
2019-06-10T16:58:44.267Z,4.17
2019-06-10T17:01:13.663Z,4.08
2019-06-10T17:03:43.112Z,4.90
2019-06-10T17:06:13.073Z,3.85
2019-06-10T17:08:42.812Z,3.55
2019-06-10T17:11:12.502Z,3.15
2019-06-10T17:13:42.386Z,3.20
2019-06-10T17:16:12.691Z,3.37
2019-06-10T17:18:42.296Z,2.95
2019-06-10T17:21:13.246Z,3.40
2019-06-10T17:23:43.427Z,3.00
2019-06-10T17:26:12.922Z,3.10
2019-06-10T17:28:42.945Z,3.25
2019-06-10T17:31:12.359Z,3.40
2019-06-10T17:33:42.747Z,3.25
2019-06-10T17:36:12.994Z,3.22
2019-06-10T17:38:42.907Z,4.75
2019-06-10T17:41:13.251Z,3.37
2019-06-10T17:43:43.065Z,3.08
2019-06-10T17:46:16.686Z,3.30
2019-06-10T17:48:46.142Z,3.58
2019-06-10T17:51:15.575Z,3.22
2019-06-10T17:53:44.958Z,3.92
2019-06-10T17:56:14.336Z,2.80
2019-06-10T17:58:53.777Z,3.17
2019-06-10T18:01:14.772Z,4.03
2019-06-10T18:03:44.195Z,4.47
2019-06-10T18:06:13.607Z,4.60
2019-06-10T18:08:43.032Z,4.15
2019-06-10T18:11:12.915Z,4.12
2019-06-10T18:13:42.805Z,4.15
2019-06-10T18:16:13.114Z,3.72
2019-06-10T18:18:42.893Z,3.85
2019-06-10T18:21:12.817Z,3.75
2019-06-10T18:23:43.486Z,3.55
2019-06-10T18:26:13.122Z,3.87
2019-06-10T18:29:00.944Z,3.87
2019-06-10T18:31:13.672Z,3.60
2019-06-10T18:33:43.036Z,3.60
2019-06-10T18:36:12.451Z,3.67
2019-06-10T18:38:43.365Z,3.45
2019-06-10T18:41:13.055Z,3.62
2019-06-10T18:43:42.431Z,3.72
2019-06-10T18:46:12.661Z,4.50
2019-06-10T18:48:43.156Z,4.12
2019-06-10T18:51:12.805Z,4.53
2019-06-10T18:53:42.716Z,3.87
2019-06-10T18:56:12.883Z,3.37
2019-06-10T18:58:42.647Z,3.33
2019-06-10T19:01:12.517Z,3.10
2019-06-10T19:03:43.089Z,3.42
2019-06-10T19:06:12.828Z,3.72
2019-06-10T19:08:44.371Z,3.12
2019-06-10T19:11:13.348Z,3.35
2019-06-10T19:13:43.545Z,4.75
2019-06-10T19:16:13.289Z,4.20
2019-06-10T19:18:43.326Z,5.03
2019-06-10T19:21:13.179Z,4.92
2019-06-10T19:23:43.819Z,4.72
2019-06-10T19:26:13.671Z,8.70
2019-06-10T19:28:45.225Z,6.00
2019-06-10T19:31:14.239Z,5.12
2019-06-10T19:33:45.029Z,5.65
2019-06-10T19:36:14.716Z,7.83
2019-06-10T19:38:44.437Z,5.92
2019-06-10T19:41:13.862Z,6.22
2019-06-10T19:43:45.245Z,7.72
2019-06-10T19:46:14.317Z,5.92
2019-06-10T19:48:56.151Z,7.25
2019-06-10T19:51:14.803Z,6.60
2019-06-10T19:53:45.174Z,6.05
2019-06-10T19:56:14.630Z,8.68
2019-06-10T19:58:46.365Z,6.60
2019-06-10T20:01:15.072Z,6.15
2019-06-10T20:03:46.530Z,6.90
2019-06-10T20:06:15.954Z,6.55
2019-06-10T20:08:46.214Z,5.83
2019-06-10T20:11:15.733Z,5.78
2019-06-10T20:13:46.613Z,6.75
2019-06-10T20:16:16.225Z,6.75
2019-06-10T20:18:47.823Z,7.28
2019-06-10T20:21:16.656Z,8.03
2019-06-10T20:23:46.065Z,7.67
2019-06-10T20:26:15.484Z,7.20
2019-06-10T20:28:46.394Z,7.55
2019-06-10T20:31:15.951Z,8.68
2019-06-10T20:33:45.345Z,8.80
2019-06-10T20:36:21.981Z,8.68
2019-06-10T20:38:48.611Z,11.73
2019-06-10T20:41:16.859Z,10.23
2019-06-10T20:43:47.309Z,10.40
2019-06-10T20:46:16.775Z,9.75
2019-06-10T20:48:49.378Z,12.43
2019-06-10T20:51:17.293Z,9.10
2019-06-10T20:53:47.985Z,12.75
2019-06-10T20:56:20.228Z,8.88
2019-06-10T20:58:49.725Z,8.78
2019-06-10T21:01:19.776Z,9.65
2019-06-10T21:03:49.917Z,8.25
2019-06-10T21:06:22.627Z,8.88
2019-06-10T21:08:53.706Z,8.60
2019-06-10T21:11:33.425Z,8.45
2019-06-10T21:14:03.263Z,8.45
2019-06-10T21:16:32.786Z,10.05
2019-06-10T21:19:02.189Z,9.30
2019-06-10T21:21:32.646Z,10.08
2019-06-10T21:24:02.435Z,7.65
2019-06-10T21:26:32.482Z,9.23
2019-06-10T21:29:03.797Z,8.88
2019-06-10T21:31:33.125Z,9.77
2019-06-10T21:34:03.035Z,10.58
2019-06-10T21:36:32.519Z,9.75
2019-06-10T21:39:02.723Z,10.25
2019-06-10T21:41:32.372Z,11.60
2019-06-10T21:44:03.057Z,11.40
2019-06-10T21:46:32.829Z,10.68
2019-06-10T21:49:02.275Z,12.82
2019-06-10T21:51:34.583Z,12.10
2019-06-10T21:54:03.159Z,12.90
2019-06-10T21:56:32.901Z,12.57
2019-06-10T21:59:02.625Z,12.98
2019-06-10T22:01:32.641Z,14.10
2019-06-10T22:04:04.526Z,12.80
2019-06-10T22:06:33.227Z,12.00
2019-06-10T22:09:03.966Z,11.57
2019-06-10T22:11:33.594Z,10.90
2019-06-10T22:14:03.084Z,12.03
2019-06-10T22:16:32.942Z,10.18
2019-06-10T22:19:03.731Z,11.28
2019-06-10T22:21:33.387Z,9.90
2019-06-10T22:24:02.774Z,9.80
2019-06-10T22:26:32.357Z,10.43
2019-06-10T22:29:01.882Z,8.90
2019-06-10T22:31:32.632Z,9.65
2019-06-10T22:34:03.357Z,8.60
2019-06-10T22:36:32.787Z,7.62
2019-06-10T22:39:03.253Z,8.43
2019-06-10T22:41:32.754Z,7.80
2019-06-10T22:44:03.581Z,8.53
2019-06-10T22:46:33.046Z,7.58
2019-06-10T22:49:03.002Z,8.20
2019-06-10T22:51:33.073Z,7.72
2019-06-10T22:54:03.561Z,8.93
2019-06-10T22:56:33.179Z,8.37
2019-06-10T22:59:03.391Z,6.87
2019-06-10T23:01:38.017Z,7.00
2019-06-10T23:04:04.133Z,8.07
2019-06-10T23:06:33.992Z,7.58
2019-06-10T23:09:04.833Z,6.92
2019-06-10T23:11:34.291Z,7.50
2019-06-10T23:14:03.721Z,6.78
2019-06-10T23:16:33.106Z,7.47
2019-06-10T23:19:02.940Z,6.35
2019-06-10T23:21:32.508Z,7.97
2019-06-10T23:24:03.148Z,7.47
2019-06-10T23:26:33.241Z,6.20
2019-06-10T23:29:03.231Z,7.33
2019-06-10T23:31:48.359Z,7.10
2019-06-10T23:34:03.824Z,7.27
2019-06-10T23:36:33.255Z,7.35
2019-06-10T23:39:04.044Z,7.42
2019-06-10T23:41:33.513Z,6.65
2019-06-10T23:44:04.403Z,6.93
2019-06-10T23:46:33.896Z,6.67
2019-06-10T23:49:04.688Z,7.20
2019-06-10T23:51:34.299Z,7.10
2019-06-10T23:54:06.016Z,8.30
2019-06-10T23:56:35.044Z,7.90
2019-06-10T23:59:04.810Z,8.18
